Terminal Aerodrome Forecast
Issued by NWS

Home | Current Version | Previous Version | Text Only | Print | Product List | Glossary On
Versions: 1 2 3 4 5 6 7 8 9 10 11 12 13 14 15 16 17 18 19 20 21 22 23 24 25
776
FTUS45 KGGW 250235 AAA
TAFOLF
TAF AMD
KOLF 250235Z 2503/2524 27012KT 2SM -SN SCT021 BKN050
     FM250500 27009KT P6SM BKN040
     FM250900 26007KT P6SM SCT100
     FM252200 23013KT P6SM BKN090=

USA.gov is the U.S. government's official web portal to all federal, state and local government web resources and services.